Time;durP1;ratioP1;P1;durP2;ratioP2;P2;SDS_P1;SDS_P2;PMS_P1;PMS_P2;Temp;Humidity;BMP_temperature;BMP_pressure;BME280_temperature;BME280_humidity;BME280_pressure;Samples;Min_cycle;Max_cycle;Signal;HPM_P1;HPM_P2
2022/09/18 00:01:09;;;;;;;4.55;2.88;;;20.40;98.30;;;;;;10532110;28;20618;-80
2022/09/18 00:06:15;;;;;;;5.05;2.60;;;20.40;98.40;;;;;;10514361;28;21012;-80
2022/09/18 00:11:21;;;;;;;4.68;2.53;;;20.30;98.40;;;;;;10524148;28;20261;-80
2022/09/18 00:16:24;;;;;;;4.70;2.28;;;20.20;98.40;;;;;;10471990;28;20260;-80
2022/09/18 00:21:28;;;;;;;4.50;2.53;;;20.30;98.20;;;;;;10504833;28;20237;-80
2022/09/18 00:26:32;;;;;;;3.00;2.00;;;20.40;98.00;;;;;;10530341;28;20273;-80
2022/09/18 00:31:36;;;;;;;2.85;2.50;;;20.30;97.90;;;;;;10532351;28;20263;-80
2022/09/18 00:36:39;;;;;;;2.58;2.00;;;20.30;97.70;;;;;;10514374;28;20258;-80
2022/09/18 00:41:43;;;;;;;3.05;2.00;;;20.30;97.60;;;;;;10517327;28;20205;-80
2022/09/18 00:46:45;;;;;;;4.38;2.30;;;20.30;97.50;;;;;;10539944;28;20267;-80
2022/09/18 00:51:52;;;;;;;3.38;2.53;;;20.30;97.40;;;;;;10505239;28;20310;-80
2022/09/18 00:57:00;;;;;;;3.00;2.47;;;20.30;97.20;;;;;;10504896;28;20193;-80
2022/09/18 01:02:04;;;;;;;2.60;2.08;;;20.30;97.30;;;;;;10521711;28;20242;-80
2022/09/18 01:07:28;;;;;;;2.20;2.00;;;20.30;97.00;;;;;;10479536;28;20276;-80
2022/09/18 01:12:39;;;;;;;2.08;1.90;;;20.30;97.00;;;;;;10454252;28;20292;-80
2022/09/18 01:18:28;;;;;;;2.40;2.15;;;20.20;97.00;;;;;;10459047;28;20206;-80
2022/09/18 01:23:51;;;;;;;2.63;2.17;;;20.20;97.00;;;;;;10390079;28;20231;-80
2022/09/18 01:29:14;;;;;;;3.97;2.60;;;20.30;96.80;;;;;;10379443;28;20308;-80
2022/09/18 01:34:53;;;;;;;3.30;2.38;;;20.20;96.90;;;;;;10366951;28;20358;-80
2022/09/18 01:40:20;;;;;;;2.28;2.08;;;20.30;96.70;;;;;;10367648;28;20710;-80
2022/09/18 01:45:29;;;;;;;2.95;1.77;;;20.30;96.60;;;;;;10372341;28;20683;-80
2022/09/18 01:50:36;;;;;;;2.80;1.65;;;20.30;96.60;;;;;;10388862;28;20697;-80
2022/09/18 01:55:41;;;;;;;2.95;1.85;;;20.20;96.40;;;;;;10350744;28;20224;-80
2022/09/18 02:00:51;;;;;;;3.10;2.40;;;20.20;96.40;;;;;;10456016;28;20267;-80
2022/09/18 02:06:01;;;;;;;2.33;1.98;;;20.30;96.30;;;;;;10493669;28;20202;-80
2022/09/18 02:11:10;;;;;;;3.28;2.15;;;20.20;96.20;;;;;;10476728;28;20265;-80
2022/09/18 02:16:29;;;;;;;1.67;1.40;;;20.20;96.40;;;;;;10508951;28;20304;-80
2022/09/18 02:21:32;;;;;;;3.10;2.00;;;20.20;96.40;;;;;;10464721;28;20234;-80
2022/09/18 02:26:38;;;;;;;2.33;1.80;;;20.20;96.30;;;;;;10451673;28;20224;-80
2022/09/18 02:31:41;;;;;;;3.00;1.75;;;20.20;96.30;;;;;;10436255;28;20292;-80
2022/09/18 02:37:02;;;;;;;3.72;2.05;;;20.00;96.60;;;;;;10465452;28;20214;-80
2022/09/18 02:42:37;;;;;;;2.50;2.03;;;20.10;96.40;;;;;;10472785;28;20202;-80
2022/09/18 02:47:50;;;;;;;4.10;2.08;;;20.10;96.10;;;;;;10406141;28;20294;-80
2022/09/18 02:53:16;;;;;;;3.08;2.00;;;20.10;96.20;;;;;;10487748;28;20657;-80
2022/09/18 02:58:40;;;;;;;3.08;1.65;;;20.00;96.10;;;;;;10474788;28;20255;-80
2022/09/18 03:03:47;;;;;;;2.80;1.80;;;20.10;96.00;;;;;;10491251;28;20234;-80
2022/09/18 03:08:52;;;;;;;2.67;1.50;;;20.00;96.20;;;;;;10491313;28;20202;-80
2022/09/18 03:13:54;;;;;;;2.22;1.67;;;20.10;95.90;;;;;;10445352;28;20650;-80
2022/09/18 03:18:58;;;;;;;3.70;1.50;;;20.10;95.80;;;;;;10451812;28;20292;-80
2022/09/18 03:24:01;;;;;;;3.90;1.80;;;20.10;95.70;;;;;;10464911;28;20240;-80
2022/09/18 03:29:08;;;;;;;2.47;1.85;;;20.10;95.70;;;;;;10453249;28;20645;-80
2022/09/18 03:34:12;;;;;;;3.13;2.00;;;20.10;95.60;;;;;;10453249;28;20656;-80
2022/09/18 03:39:16;;;;;;;2.72;1.48;;;20.10;95.70;;;;;;10451033;28;20276;-80
2022/09/18 03:44:20;;;;;;;1.52;1.33;;;20.10;95.70;;;;;;10459075;28;20674;-80
2022/09/18 03:49:24;;;;;;;2.17;1.70;;;20.10;95.70;;;;;;10468299;28;20277;-80
2022/09/18 03:54:29;;;;;;;2.97;1.88;;;20.10;95.70;;;;;;10453027;28;20220;-79
2022/09/18 03:59:57;;;;;;;2.97;1.40;;;20.10;95.70;;;;;;10443743;28;20296;-80
2022/09/18 04:05:20;;;;;;;2.38;1.58;;;20.00;95.60;;;;;;10473214;28;20238;-80
2022/09/18 04:10:41;;;;;;;2.10;1.80;;;20.10;95.60;;;;;;10498177;28;20257;-80
2022/09/18 04:15:46;;;;;;;1.85;1.50;;;20.00;95.70;;;;;;10492667;28;20256;-80
2022/09/18 04:20:49;;;;;;;1.42;1.33;;;20.00;95.60;;;;;;10481062;28;20210;-80
2022/09/18 04:25:52;;;;;;;1.88;1.40;;;20.10;95.60;;;;;;10494605;28;20237;-80
2022/09/18 04:30:59;;;;;;;1.95;1.40;;;20.10;95.50;;;;;;10497263;28;20254;-80
2022/09/18 04:36:03;;;;;;;3.90;1.80;;;20.00;95.50;;;;;;10495048;28;20228;-80
2022/09/18 04:41:06;;;;;;;3.05;1.65;;;20.10;95.50;;;;;;10497742;28;20536;-80
2022/09/18 04:46:08;;;;;;;2.58;1.90;;;20.00;95.50;;;;;;10483130;28;20214;-80
2022/09/18 04:51:11;;;;;;;2.00;1.58;;;20.10;95.40;;;;;;10464383;28;20262;-80
2022/09/18 04:56:22;;;;;;;1.95;1.63;;;20.10;95.30;;;;;;10492741;28;20226;-80
2022/09/18 05:01:26;;;;;;;2.25;2.05;;;20.10;95.30;;;;;;10480233;28;20202;-80
2022/09/18 05:06:29;;;;;;;2.75;1.95;;;20.10;95.30;;;;;;10496807;28;20260;-80
2022/09/18 05:11:34;;;;;;;2.78;2.20;;;20.10;95.30;;;;;;10464392;28;20273;-80
2022/09/18 05:16:37;;;;;;;2.05;1.85;;;20.10;95.30;;;;;;10478491;28;20313;-80
2022/09/18 05:21:57;;;;;;;4.32;2.70;;;20.10;95.30;;;;;;10500602;28;20643;-80
2022/09/18 05:26:59;;;;;;;2.75;2.10;;;20.00;95.60;;;;;;10478071;28;20211;-80
2022/09/18 05:32:04;;;;;;;3.17;1.92;;;20.10;95.40;;;;;;10518021;28;20249;-80
2022/09/18 05:37:09;;;;;;;2.22;1.95;;;20.10;95.30;;;;;;10486048;28;20251;-80
2022/09/18 05:42:14;;;;;;;2.17;1.98;;;20.10;95.40;;;;;;10493690;28;20205;-80
2022/09/18 05:47:17;;;;;;;3.03;2.22;;;19.80;95.80;;;;;;10518297;28;20271;-80
2022/09/18 05:52:20;;;;;;;2.85;2.28;;;20.00;95.60;;;;;;10504097;28;20225;-80
2022/09/18 05:57:23;;;;;;;2.85;2.10;;;20.00;95.60;;;;;;10518363;28;20275;-80
2022/09/18 06:02:25;;;;;;;3.78;2.40;;;20.10;95.50;;;;;;10536173;28;20255;-80
2022/09/18 06:07:41;;;;;;;2.90;2.20;;;20.00;95.30;;;;;;10518317;28;20201;-80
2022/09/18 06:12:45;;;;;;;2.50;2.30;;;20.00;95.20;;;;;;10515917;28;20314;-79
2022/09/18 06:17:50;;;;;;;3.42;2.38;;;20.00;95.80;;;;;;10502401;28;20232;-80
2022/09/18 06:22:56;;;;;;;3.72;2.92;;;20.10;95.60;;;;;;10480507;28;20263;-80
2022/09/18 06:28:10;;;;;;;2.70;2.50;;;20.10;95.40;;;;;;10486110;28;20245;-79
2022/09/18 06:33:12;;;;;;;3.22;2.60;;;19.80;96.00;;;;;;10495344;28;20298;-80
2022/09/18 06:38:15;;;;;;;2.63;2.42;;;20.10;95.60;;;;;;10493535;28;20286;-80
2022/09/18 06:43:22;;;;;;;3.85;3.05;;;20.10;95.50;;;;;;10497171;28;20229;-80
2022/09/18 06:48:48;;;;;;;7.95;3.50;;;19.90;96.00;;;;;;10496720;28;20656;-80
2022/09/18 06:53:52;;;;;;;2.95;2.65;;;20.00;95.80;;;;;;10496841;28;20258;-80
2022/09/18 06:58:54;;;;;;;4.13;3.67;;;20.10;95.60;;;;;;10495105;28;20598;-80
2022/09/18 07:03:57;;;;;;;3.00;2.80;;;20.10;95.60;;;;;;10494146;28;20202;-80
2022/09/18 07:09:06;;;;;;;4.32;3.08;;;20.10;95.60;;;;;;10491910;28;20290;-80
2022/09/18 07:14:26;;;;;;;3.88;3.50;;;20.20;95.50;;;;;;10438963;28;20304;-80
2022/09/18 07:19:36;;;;;;;3.35;3.05;;;20.20;95.30;;;;;;10416561;28;20198;-80
2022/09/18 07:24:39;;;;;;;4.40;3.97;;;19.90;96.20;;;;;;10431376;28;20214;-80
2022/09/18 07:29:42;;;;;;;5.00;2.92;;;19.90;95.90;;;;;;10415942;28;20296;-81
2022/09/18 07:34:48;;;;;;;3.63;2.95;;;19.60;96.90;;;;;;10431673;28;20212;-80
2022/09/18 07:39:59;;;;;;;3.70;3.15;;;19.90;96.90;;;;;;10418412;28;20235;-80
2022/09/18 07:45:20;;;;;;;3.88;2.90;;;19.90;96.50;;;;;;10418826;28;20674;-80
2022/09/18 07:50:24;;;;;;;4.47;3.47;;;20.00;96.20;;;;;;10389459;28;20258;-80
2022/09/18 07:55:28;;;;;;;3.58;3.25;;;19.90;96.40;;;;;;10432194;28;20207;-80
2022/09/18 08:00:35;;;;;;;3.30;3.00;;;20.10;96.10;;;;;;10430169;28;20292;-83
2022/09/18 08:05:39;;;;;;;3.47;3.17;;;20.00;96.10;;;;;;10431930;28;20265;-81
2022/09/18 08:10:44;;;;;;;5.18;2.70;;;19.80;97.00;;;;;;10429255;28;20278;-81
2022/09/18 08:16:20;;;;;;;6.47;2.55;;;20.10;96.40;;;;;;10264127;28;20282;-81
2022/09/18 08:21:48;;;;;;;1.92;1.73;;;20.30;98.50;;;;;;10269440;28;20844;-83
2022/09/18 08:26:52;;;;;;;2.17;1.65;;;20.50;99.90;;;;;;10281312;28;20237;-83
2022/09/18 08:31:56;;;;;;;6.00;2.83;;;18.70;99.90;;;;;;10229293;29;20258;-82
2022/09/18 08:37:00;;;;;;;5.90;2.63;;;18.30;99.90;;;;;;10254728;28;20236;-82
2022/09/18 08:42:43;;;;;;;4.27;2.30;;;19.20;99.90;;;;;;10289939;28;20241;-82
2022/09/18 08:47:54;;;;;;;3.58;2.50;;;20.40;99.90;;;;;;10262769;28;20726;-82
2022/09/18 08:53:04;;;;;;;2.58;1.70;;;20.90;99.90;;;;;;10424282;28;20266;-81
2022/09/18 08:58:34;;;;;;;4.57;2.27;;;19.20;99.90;;;;;;10460698;28;20203;-83
2022/09/18 09:03:59;;;;;;;5.00;2.35;;;18.70;99.90;;;;;;10421956;28;20242;-82
2022/09/18 09:09:27;;;;;;;4.80;1.98;;;19.70;99.90;;;;;;10434249;28;20623;-82
2022/09/18 09:14:43;;;;;;;2.67;1.23;;;19.80;99.90;;;;;;10503669;28;20298;-83
2022/09/18 09:20:29;;;;;;;3.85;1.15;;;19.50;99.90;;;;;;10500241;28;20711;-83
2022/09/18 09:26:02;;;;;;;0.68;0.30;;;19.00;99.90;;;;;;10493465;28;20282;-83
2022/09/18 09:31:31;;;;;;;1.70;1.60;;;16.50;99.90;;;;;;10461557;28;20330;-81
2022/09/18 09:37:13;;;;;;;2.95;2.15;;;19.50;99.90;;;;;;10513695;28;20756;-86
2022/09/18 09:42:37;;;;;;;2.60;1.95;;;20.20;99.90;;;;;;10503396;28;20233;-86
2022/09/18 09:47:42;;;;;;;3.20;1.63;;;20.00;99.90;;;;;;10493962;28;20221;-84
2022/09/18 09:52:46;;;;;;;2.70;1.50;;;19.60;99.90;;;;;;10519059;28;20306;-84
2022/09/18 09:58:20;;;;;;;2.03;1.38;;;20.10;99.90;;;;;;10482959;28;20280;-81
2022/09/18 10:03:51;;;;;;;3.58;1.83;;;20.00;99.90;;;;;;10484800;28;20197;-81
2022/09/18 10:09:23;;;;;;;1.80;1.70;;;19.10;99.90;;;;;;10514547;28;20209;-84
2022/09/18 10:14:32;;;;;;;1.35;1.13;;;20.20;98.90;;;;;;10468772;28;20249;-80
2022/09/18 10:19:38;;;;;;;3.38;1.10;;;20.20;99.20;;;;;;10497003;28;20581;-82
2022/09/18 10:25:04;;;;;;;2.23;1.60;;;18.00;99.90;;;;;;10493902;28;20234;-81
2022/09/18 10:30:12;;;;;;;4.87;1.47;;;14.20;99.90;;;;;;10517590;28;20205;-80
2022/09/18 10:35:30;;;;;;;4.00;1.20;;;14.30;99.90;;;;;;10517530;28;20309;-80
2022/09/18 10:40:38;;;;;;;7.37;1.83;;;13.60;99.90;;;;;;10517142;28;20193;-80
2022/09/18 10:45:54;;;;;;;5.40;2.37;;;15.50;99.90;;;;;;10501114;28;20231;-80
2022/09/18 10:51:16;;;;;;;3.67;2.23;;;13.20;99.90;;;;;;10517697;28;20258;-80
2022/09/18 10:56:22;;;;;;;6.37;3.30;;;;;;;;;;10514819;28;20202;-81
2022/09/18 11:01:28;;;;;;;6.50;4.30;;;12.40;99.90;;;;;;10505891;28;20209;-81
2022/09/18 11:06:36;;;;;;;3.03;2.67;;;12.00;99.90;;;;;;10494321;28;20267;-81
2022/09/18 11:12:13;;;;;;;7.10;2.30;;;16.30;99.90;;;;;;10515310;28;20752;-81
2022/09/18 11:17:29;;;;;;;6.83;2.83;;;18.60;99.90;;;;;;10494643;28;20202;-81
2022/09/18 11:22:38;;;;;;;4.20;1.90;;;18.90;99.90;;;;;;10515334;28;20262;-81
2022/09/18 11:27:50;;;;;;;3.85;2.20;;;19.10;99.90;;;;;;10513277;28;20685;-81
2022/09/18 11:33:02;;;;;;;5.88;2.70;;;19.90;99.90;;;;;;10514160;28;20253;-81
2022/09/18 11:38:06;;;;;;;6.47;2.80;;;20.10;99.90;;;;;;10512208;28;20283;-81
2022/09/18 11:49:09;;;;;;;5.95;2.13;;;15.10;99.90;;;;;;11996701;23;10002741;-84
2022/09/18 11:54:48;;;;;;;10.30;3.07;;;13.10;99.90;;;;;;9703756;29;10003003;-84
2022/09/18 12:00:15;;;;;;;6.87;3.00;;;13.10;99.90;;;;;;10098389;29;20220;-84
2022/09/18 12:05:31;;;;;;;6.80;2.40;;;13.70;99.90;;;;;;10084530;29;20316;-84
2022/09/18 12:11:11;;;;;;;4.30;2.07;;;14.30;99.90;;;;;;10099000;29;20626;-84
2022/09/18 12:16:30;;;;;;;8.77;2.03;;;13.70;99.90;;;;;;10066167;29;20242;-84
2022/09/18 12:22:06;;;;;;;6.93;2.17;;;12.90;99.90;;;;;;10064044;29;20252;-84
2022/09/18 12:27:54;;;;;;;10.13;2.60;;;13.90;99.90;;;;;;10071047;29;20299;-84
2022/09/18 12:33:40;;;;;;;4.23;2.20;;;13.90;99.90;;;;;;10074882;29;20252;-84
2022/09/18 12:39:08;;;;;;;7.43;2.07;;;15.00;99.90;;;;;;10065053;29;20674;-83
2022/09/18 12:44:39;;;;;;;7.63;1.43;;;14.70;99.90;;;;;;10061005;29;20302;-84
2022/09/18 12:50:16;;;;;;;4.60;2.07;;;13.80;99.90;;;;;;10054129;29;20276;-84
2022/09/18 12:55:38;;;;;;;4.93;2.10;;;18.30;99.90;;;;;;10072228;29;20293;-83
2022/09/18 13:00:46;;;;;;;5.40;1.87;;;18.70;99.90;;;;;;10062933;29;20289;-83
2022/09/18 13:05:57;;;;;;;2.67;1.70;;;19.50;99.90;;;;;;10078381;29;20278;-84
2022/09/18 13:17:11;;;;;;;9.60;1.80;;;14.70;99.90;;;;;;10010660;29;20307;-83
2022/09/18 13:22:17;;;;;;;6.80;1.43;;;14.90;99.90;;;;;;10002945;29;20242;-83
2022/09/18 13:27:23;;;;;;;9.07;2.03;;;14.10;99.90;;;;;;9995327;29;20694;-83
2022/09/18 13:32:32;;;;;;;4.80;1.20;;;14.60;99.90;;;;;;9995373;29;20290;-83
2022/09/18 13:37:41;;;;;;;8.40;2.33;;;14.10;99.90;;;;;;10011362;29;20335;-84
2022/09/18 13:42:44;;;;;;;6.10;1.53;;;15.60;99.90;;;;;;10024933;29;20245;-84
2022/09/18 13:48:35;;;;;;;7.50;2.07;;;14.70;99.90;;;;;;10008406;29;20250;-84
2022/09/18 13:53:42;;;;;;;31.43;3.70;;;17.90;99.90;;;;;;10065512;29;20326;-84
2022/09/18 13:58:51;;;;;;;9.20;3.37;;;18.20;99.90;;;;;;10116301;29;20232;-84
2022/09/18 14:03:53;;;;;;;5.57;2.87;;;19.50;99.90;;;;;;10117377;29;20231;-84
2022/09/18 14:08:56;;;;;;;5.38;2.97;;;19.60;99.90;;;;;;10093403;29;20252;-83
2022/09/18 14:13:58;;;;;;;7.47;2.50;;;19.90;99.90;;;;;;10099286;29;20299;-83
2022/09/18 14:19:06;;;;;;;4.25;2.15;;;19.30;99.90;;;;;;10099068;29;20229;-83
2022/09/18 14:24:22;;;;;;;6.43;3.00;;;19.50;99.90;;;;;;10123640;29;20623;-83
2022/09/18 14:29:30;;;;;;;7.15;2.47;;;19.90;97.90;;;;;;10094514;29;20305;-83
2022/09/18 14:34:41;;;;;;;4.78;2.53;;;20.10;98.90;;;;;;10077235;29;20304;-82
2022/09/18 14:39:44;;;;;;;3.00;1.58;;;19.70;99.90;;;;;;10060864;29;20248;-83
2022/09/18 14:44:51;;;;;;;3.75;2.28;;;19.90;99.80;;;;;;10076091;29;20300;-83
2022/09/18 14:49:54;;;;;;;4.35;2.20;;;19.70;99.90;;;;;;10090992;29;20272;-84
2022/09/18 14:55:09;;;;;;;6.95;2.42;;;20.40;99.90;;;;;;10076207;29;20268;-83
2022/09/18 15:00:32;;;;;;;2.90;1.80;;;20.30;99.90;;;;;;10075218;29;20292;-83
2022/09/18 15:05:35;;;;;;;3.35;1.50;;;20.50;99.20;;;;;;10115287;29;20236;-83
2022/09/18 15:10:39;;;;;;;2.85;1.83;;;20.30;97.70;;;;;;9750586;29;10000575;-82
2022/09/18 15:15:45;;;;;;;3.45;1.70;;;20.60;98.20;;;;;;10077326;29;20253;-82
2022/09/18 15:20:49;;;;;;;2.90;1.67;;;20.50;97.70;;;;;;10107958;29;20233;-84
2022/09/18 15:25:55;;;;;;;4.88;1.95;;;20.80;97.00;;;;;;10078885;29;20296;-83
2022/09/18 15:31:03;;;;;;;2.67;1.20;;;20.90;96.50;;;;;;10091581;29;20933;-82
2022/09/18 15:36:14;;;;;;;5.60;1.98;;;20.20;96.60;;;;;;10092674;29;20259;-84
2022/09/18 15:41:37;;;;;;;2.58;1.65;;;20.40;95.40;;;;;;10102712;29;20281;-84
2022/09/18 15:46:40;;;;;;;6.80;2.05;;;20.20;96.30;;;;;;10079067;29;20236;-85
2022/09/18 15:51:43;;;;;;;3.70;1.83;;;19.70;97.30;;;;;;10108122;29;20264;-85
2022/09/18 15:56:51;;;;;;;6.50;0.93;;;20.30;97.20;;;;;;10110058;29;20288;-85
2022/09/18 16:01:55;;;;;;;2.70;1.37;;;18.30;90.10;;;;;;10095769;29;20229;-85
2022/09/18 16:07:21;;;;;;;7.10;2.90;;;18.30;90.50;;;;;;10142978;29;20228;-85
2022/09/18 16:12:30;;;;;;;3.37;0.87;;;18.40;89.10;;;;;;10155991;29;20258;-86
2022/09/18 16:17:34;;;;;;;3.30;0.98;;;19.20;88.70;;;;;;10145560;29;20223;-85
2022/09/18 16:22:39;;;;;;;3.47;0.90;;;19.50;86.80;;;;;;10137380;29;20240;-85
2022/09/18 16:27:46;;;;;;;4.43;0.80;;;19.60;88.00;;;;;;10137047;29;20232;-85
2022/09/18 16:32:53;;;;;;;4.30;1.13;;;19.80;86.50;;;;;;10136867;29;20248;-85
2022/09/18 16:37:55;;;;;;;3.45;1.20;;;19.90;86.10;;;;;;10136561;29;20622;-85
2022/09/18 16:42:58;;;;;;;1.83;0.90;;;19.80;84.20;;;;;;10104733;29;20223;-85
2022/09/18 16:48:01;;;;;;;1.87;1.47;;;20.30;85.50;;;;;;10076686;29;20232;-86
2022/09/18 16:53:05;;;;;;;2.40;1.90;;;13.50;99.70;;;;;;10097229;29;20289;-85
2022/09/18 16:58:08;;;;;;;2.13;1.67;;;11.60;99.90;;;;;;10095056;29;20220;-85
2022/09/18 17:03:11;;;;;;;6.23;2.67;;;10.90;99.90;;;;;;10110414;29;20303;-85
2022/09/18 17:08:14;;;;;;;28.60;10.30;;;10.60;99.90;;;;;;10116710;29;20250;-85
2022/09/18 17:13:17;;;;;;;2.47;1.00;;;10.50;99.90;;;;;;10096231;29;20707;-86
2022/09/18 17:18:19;;;;;;;1.87;0.80;;;10.30;99.90;;;;;;10097435;29;20202;-86
2022/09/18 17:23:22;;;;;;;4.53;1.90;;;10.00;99.90;;;;;;10095910;29;20308;-85
2022/09/18 17:28:26;;;;;;;4.67;2.00;;;15.50;99.90;;;;;;10104039;29;20300;-85
2022/09/18 17:33:29;;;;;;;3.70;1.70;;;17.80;99.90;;;;;;10095699;29;20268;-86
2022/09/18 17:38:33;;;;;;;4.73;2.00;;;18.60;99.90;;;;;;10085604;29;20752;-86
2022/09/18 17:43:36;;;;;;;2.33;1.70;;;19.10;99.90;;;;;;10110495;29;20751;-85
2022/09/18 17:48:40;;;;;;;3.47;1.60;;;19.50;99.90;;;;;;10109117;29;20252;-85
2022/09/18 17:53:43;;;;;;;3.45;1.25;;;19.70;99.90;;;;;;10085756;29;20264;-85
2022/09/18 17:58:46;;;;;;;3.50;2.00;;;19.80;99.90;;;;;;10090225;29;20233;-85
2022/09/18 18:03:49;;;;;;;3.70;2.25;;;19.90;99.90;;;;;;10110872;29;20288;-85
2022/09/18 18:08:52;;;;;;;3.90;1.77;;;20.00;97.50;;;;;;10121637;29;20255;-85
2022/09/18 18:13:55;;;;;;;3.22;1.92;;;20.00;99.20;;;;;;10095735;29;20324;-85
2022/09/18 18:19:03;;;;;;;3.17;1.70;;;20.00;99.00;;;;;;10100200;29;20236;-85
2022/09/18 18:24:11;;;;;;;3.28;1.98;;;19.80;97.90;;;;;;10106360;29;20299;-85
2022/09/18 18:29:15;;;;;;;2.50;1.33;;;19.90;98.60;;;;;;10108395;29;20241;-85
2022/09/18 18:34:23;;;;;;;2.28;1.70;;;20.00;98.20;;;;;;10108900;29;20269;-86
2022/09/18 18:39:26;;;;;;;3.30;1.92;;;19.80;98.80;;;;;;10099640;29;20291;-85
2022/09/18 18:44:28;;;;;;;4.90;1.67;;;19.90;98.50;;;;;;10094880;29;20280;-85
2022/09/18 18:49:31;;;;;;;3.22;1.63;;;19.90;98.60;;;;;;10093365;29;20667;-85
2022/09/18 18:54:34;;;;;;;2.95;1.80;;;20.00;98.10;;;;;;10108091;29;20316;-85
2022/09/18 18:59:37;;;;;;;2.88;1.60;;;20.00;98.00;;;;;;10104663;29;20240;-85
2022/09/18 19:04:40;;;;;;;3.42;1.83;;;20.00;97.80;;;;;;10081320;29;20224;-85
2022/09/18 19:09:43;;;;;;;2.70;1.67;;;20.00;97.60;;;;;;10095984;29;20213;-85
2022/09/18 19:14:47;;;;;;;2.42;1.65;;;20.00;97.50;;;;;;10063062;29;20268;-86
2022/09/18 19:19:50;;;;;;;2.78;1.98;;;20.10;97.10;;;;;;10093536;29;20245;-83
2022/09/18 19:24:52;;;;;;;2.85;1.63;;;20.00;97.30;;;;;;10115989;29;20303;-85
2022/09/18 19:29:55;;;;;;;3.58;1.90;;;20.10;97.10;;;;;;10108421;29;20240;-84
2022/09/18 19:34:57;;;;;;;2.78;1.75;;;20.10;97.10;;;;;;10098426;29;20253;-85
2022/09/18 19:40:02;;;;;;;4.03;2.17;;;20.00;97.20;;;;;;10100159;29;20643;-85
2022/09/18 19:45:05;;;;;;;2.75;2.03;;;20.00;97.20;;;;;;10110278;29;20633;-85
2022/09/18 19:50:26;;;;;;;3.28;2.25;;;19.90;97.40;;;;;;10087019;29;20260;-85
2022/09/18 19:55:29;;;;;;;2.92;1.95;;;20.00;97.10;;;;;;10075093;29;20248;-85
2022/09/18 20:00:32;;;;;;;4.45;2.50;;;20.00;96.80;;;;;;10106066;29;20228;-85
2022/09/18 20:05:38;;;;;;;3.00;1.92;;;19.90;97.20;;;;;;10102029;29;20286;-85
2022/09/18 20:10:41;;;;;;;3.85;2.22;;;20.00;96.90;;;;;;10107216;29;20264;-85
2022/09/18 20:15:44;;;;;;;2.55;1.80;;;20.00;97.00;;;;;;10106596;29;20327;-85
2022/09/18 20:20:48;;;;;;;2.90;2.00;;;20.00;96.60;;;;;;10094343;29;20240;-85
2022/09/18 20:25:51;;;;;;;3.92;2.30;;;20.00;96.60;;;;;;10082093;29;20284;-84
2022/09/18 20:30:54;;;;;;;2.90;2.08;;;20.00;96.50;;;;;;10100445;29;20244;-84
2022/09/18 20:35:57;;;;;;;3.45;2.00;;;20.10;96.20;;;;;;10095226;29;20307;-85
2022/09/18 20:41:03;;;;;;;8.73;3.20;;;20.00;96.80;;;;;;10118856;29;20708;-87
2022/09/18 20:46:12;;;;;;;10.30;3.23;;;17.40;96.20;;;;;;10074766;29;20262;-84
2022/09/18 20:51:17;;;;;;;5.27;3.20;;;13.90;99.90;;;;;;10091346;29;20739;-84
2022/09/18 20:56:20;;;;;;;7.67;2.80;;;17.40;99.90;;;;;;10109240;29;20252;-83
2022/09/18 21:01:26;;;;;;;5.57;2.80;;;18.50;99.50;;;;;;10080290;29;20208;-83
2022/09/18 21:06:32;;;;;;;6.07;3.03;;;18.90;97.40;;;;;;10086239;29;20644;-83
2022/09/18 21:11:40;;;;;;;8.87;2.53;;;19.10;96.30;;;;;;10080341;29;20296;-83
2022/09/18 21:16:43;;;;;;;5.15;2.53;;;19.20;95.90;;;;;;10084009;29;20265;-84
2022/09/18 21:21:47;;;;;;;5.88;2.47;;;19.30;95.40;;;;;;10104954;29;20232;-84
2022/09/18 21:26:49;;;;;;;4.13;2.50;;;19.40;94.50;;;;;;10122127;29;20244;-84
2022/09/18 21:31:54;;;;;;;4.75;2.97;;;19.50;94.40;;;;;;10117612;29;20236;-85
2022/09/18 21:37:00;;;;;;;3.65;2.38;;;19.60;94.20;;;;;;10089942;29;20268;-85
2022/09/18 21:42:07;;;;;;;4.40;2.22;;;19.60;94.20;;;;;;10090225;29;20936;-86
2022/09/18 21:47:11;;;;;;;6.10;2.42;;;19.60;93.90;;;;;;10095532;29;20236;-84
2022/09/18 21:52:15;;;;;;;3.67;2.42;;;19.60;93.90;;;;;;10095995;29;20721;-85
2022/09/18 21:57:18;;;;;;;3.17;2.00;;;19.60;93.80;;;;;;10098135;29;20719;-85
2022/09/18 22:02:20;;;;;;;4.75;3.10;;;19.60;94.10;;;;;;10119492;29;20235;-85
2022/09/18 22:07:23;;;;;;;3.13;2.00;;;19.60;93.80;;;;;;10125068;29;20232;-85
2022/09/18 22:12:26;;;;;;;3.05;2.13;;;19.80;93.50;;;;;;10132652;29;20648;-85
2022/09/18 22:17:29;;;;;;;3.90;1.98;;;19.70;93.50;;;;;;10135494;29;20248;-84
2022/09/18 22:22:32;;;;;;;5.70;2.53;;;19.80;93.20;;;;;;10127070;29;20263;-85
2022/09/18 22:27:35;;;;;;;3.37;2.33;;;19.80;93.20;;;;;;10143407;29;20224;-85
2022/09/18 22:32:37;;;;;;;2.45;2.20;;;19.80;93.20;;;;;;10133794;29;20594;-85
2022/09/18 22:37:40;;;;;;;3.60;2.07;;;19.70;93.50;;;;;;10117216;29;20252;-85
2022/09/18 22:42:42;;;;;;;4.03;2.20;;;19.80;93.40;;;;;;10097308;29;20281;-85
2022/09/18 22:47:45;;;;;;;3.72;2.13;;;19.80;93.50;;;;;;10131889;29;20308;-85
2022/09/18 22:52:47;;;;;;;3.60;2.50;;;19.70;93.40;;;;;;10093336;29;20312;-85
2022/09/18 22:57:50;;;;;;;2.85;1.95;;;19.80;93.30;;;;;;10095939;29;20643;-85
2022/09/18 23:02:52;;;;;;;3.55;2.45;;;19.80;93.50;;;;;;10132699;29;20251;-85
2022/09/18 23:07:55;;;;;;;2.60;2.00;;;19.70;93.50;;;;;;10132479;29;20313;-85
2022/09/18 23:12:57;;;;;;;3.13;1.75;;;19.80;93.50;;;;;;10131506;29;20287;-85
2022/09/18 23:18:00;;;;;;;3.05;2.05;;;19.80;93.30;;;;;;10130774;29;20256;-85
2022/09/18 23:23:02;;;;;;;2.55;2.00;;;19.80;93.20;;;;;;10099015;29;20744;-85
2022/09/18 23:28:04;;;;;;;3.22;1.95;;;19.80;93.30;;;;;;10093419;29;20240;-85
2022/09/18 23:33:07;;;;;;;2.00;1.70;;;19.80;93.30;;;;;;10120933;29;20273;-85
2022/09/18 23:38:09;;;;;;;3.38;2.00;;;19.80;93.50;;;;;;10132494;29;20308;-85
2022/09/18 23:43:12;;;;;;;3.10;1.60;;;19.70;93.20;;;;;;10115370;29;20770;-85
2022/09/18 23:48:14;;;;;;;2.25;1.85;;;19.90;93.10;;;;;;10079168;29;20217;-85
2022/09/18 23:53:18;;;;;;;2.65;2.05;;;19.50;94.10;;;;;;10095217;29;20245;-85
2022/09/18 23:58:20;;;;;;;2.92;1.67;;;19.70;93.70;;;;;;10094159;29;20225;-85
